Time;durP1;ratioP1;P1;durP2;ratioP2;P2;SDS_P1;SDS_P2;PMS_P1;PMS_P2;Temp;Humidity;BMP_temperature;BMP_pressure;BME280_temperature;BME280_humidity;BME280_pressure;Samples;Min_cycle;Max_cycle;Signal;HPM_P1;HPM_P2
2021/08/31 00:00:27;;;;;;;15.03;13.30;;;15.10;99.90;;;;;;5010348;28;20253;-61
2021/08/31 00:02:53;;;;;;;16.03;14.53;;;15.00;99.90;;;;;;5011005;28;20297;-61
2021/08/31 00:05:18;;;;;;;15.23;13.63;;;15.10;99.90;;;;;;5010841;28;20179;-61
2021/08/31 00:07:44;;;;;;;14.70;13.40;;;15.10;99.90;;;;;;5011037;28;20249;-61
2021/08/31 00:10:11;;;;;;;15.23;13.70;;;15.10;99.90;;;;;;5010386;28;20171;-61
2021/08/31 00:12:38;;;;;;;17.23;13.93;;;15.10;99.90;;;;;;5010819;28;20602;-61
2021/08/31 00:15:05;;;;;;;14.27;12.97;;;15.10;99.90;;;;;;5010529;28;20425;-61
2021/08/31 00:17:30;;;;;;;14.33;12.57;;;15.20;99.90;;;;;;5010584;28;20527;-62
2021/08/31 00:19:56;;;;;;;13.30;12.10;;;15.20;99.90;;;;;;5010416;28;20814;-61
2021/08/31 00:22:22;;;;;;;12.80;11.63;;;15.20;99.90;;;;;;5010411;28;20170;-62
2021/08/31 00:24:47;;;;;;;14.60;13.20;;;15.20;99.90;;;;;;5010466;28;20190;-62
2021/08/31 00:27:13;;;;;;;14.53;13.03;;;15.20;99.90;;;;;;5010415;28;20206;-59
2021/08/31 00:29:38;;;;;;;16.17;13.10;;;15.20;99.90;;;;;;5010184;28;20179;-61
2021/08/31 00:32:04;;;;;;;15.47;13.87;;;15.30;99.90;;;;;;5010391;28;20175;-62
2021/08/31 00:34:30;;;;;;;14.93;13.40;;;15.20;99.90;;;;;;5010342;28;20237;-60
2021/08/31 00:36:55;;;;;;;16.37;14.73;;;15.20;99.90;;;;;;5010178;28;20425;-60
2021/08/31 00:39:21;;;;;;;16.53;14.70;;;15.10;99.90;;;;;;5010006;28;20264;-62
2021/08/31 00:41:47;;;;;;;15.90;14.30;;;15.10;99.90;;;;;;5010227;28;20209;-61
2021/08/31 00:44:25;;;;;;;17.33;15.63;;;15.20;99.90;;;;;;5009891;28;20177;-61
2021/08/31 00:46:52;;;;;;;16.63;14.97;;;15.20;99.90;;;;;;5010073;28;20417;-61
2021/08/31 00:49:18;;;;;;;18.13;16.33;;;15.20;99.90;;;;;;5010014;28;20433;-61
2021/08/31 00:51:43;;;;;;;17.97;16.03;;;15.20;99.90;;;;;;5009172;28;20433;-61
2021/08/31 00:54:09;;;;;;;18.00;16.10;;;15.10;99.90;;;;;;5009866;28;20448;-60
2021/08/31 00:56:35;;;;;;;19.97;17.97;;;15.00;99.90;;;;;;5009724;28;20217;-60
2021/08/31 00:59:00;;;;;;;18.30;15.90;;;15.10;99.90;;;;;;5009631;28;20285;-62
2021/08/31 01:01:27;;;;;;;17.20;15.13;;;15.00;99.90;;;;;;5010048;28;20174;-62
2021/08/31 01:03:53;;;;;;;17.53;15.73;;;15.00;99.90;;;;;;5010000;28;20170;-62
2021/08/31 01:06:18;;;;;;;16.67;14.97;;;14.90;99.90;;;;;;5009662;28;20479;-60
2021/08/31 01:08:44;;;;;;;18.50;15.67;;;15.00;99.90;;;;;;5009746;28;20202;-60
2021/08/31 01:11:09;;;;;;;15.97;14.47;;;15.10;99.90;;;;;;5009376;28;20628;-61
2021/08/31 01:13:36;;;;;;;19.60;17.70;;;15.10;99.90;;;;;;5009735;28;20175;-59
2021/08/31 01:16:03;;;;;;;17.20;15.57;;;15.10;99.90;;;;;;5009663;28;20680;-60
2021/08/31 01:18:29;;;;;;;20.10;17.40;;;15.10;99.90;;;;;;5009129;28;20924;-61
2021/08/31 01:20:58;;;;;;;22.10;19.80;;;15.10;99.90;;;;;;5009578;28;20442;-61
2021/08/31 01:23:25;;;;;;;23.03;20.53;;;15.10;99.90;;;;;;5009822;28;20430;-61
2021/08/31 01:25:52;;;;;;;22.67;18.87;;;15.00;99.90;;;;;;5009603;28;20796;-61
2021/08/31 01:28:20;;;;;;;19.50;17.20;;;15.00;99.90;;;;;;5009069;28;20450;-61
2021/08/31 01:30:47;;;;;;;23.77;18.80;;;15.00;99.90;;;;;;5009541;28;20433;-61
2021/08/31 01:33:12;;;;;;;23.87;21.37;;;15.10;99.90;;;;;;5009320;28;20425;-60
2021/08/31 01:35:38;;;;;;;23.70;19.80;;;15.10;99.90;;;;;;5009468;28;20853;-61
2021/08/31 01:38:04;;;;;;;21.23;18.80;;;15.00;99.90;;;;;;5009220;28;20203;-61
2021/08/31 01:40:30;;;;;;;26.73;21.30;;;15.00;99.90;;;;;;5008923;28;20596;-61
2021/08/31 01:42:55;;;;;;;24.27;21.20;;;14.90;99.90;;;;;;5009044;28;20508;-60
2021/08/31 01:45:21;;;;;;;24.87;21.17;;;14.90;99.90;;;;;;5009151;28;20550;-61
2021/08/31 01:47:46;;;;;;;28.77;23.60;;;14.90;99.90;;;;;;5009532;28;20731;-61
2021/08/31 01:50:12;;;;;;;23.33;19.57;;;14.90;99.90;;;;;;5009104;28;20183;-60
2021/08/31 01:52:38;;;;;;;24.73;22.17;;;14.90;99.90;;;;;;5009078;28;20221;-61
2021/08/31 01:55:05;;;;;;;24.97;22.37;;;14.90;99.90;;;;;;5008943;28;20213;-61
2021/08/31 01:57:31;;;;;;;23.17;20.70;;;14.80;99.90;;;;;;5008761;28;20202;-59
2021/08/31 01:59:56;;;;;;;24.03;21.37;;;14.90;99.90;;;;;;5008763;28;20942;-61
2021/08/31 02:02:22;;;;;;;23.10;20.70;;;14.90;99.90;;;;;;5010618;28;20194;-61
2021/08/31 02:04:47;;;;;;;23.47;21.07;;;15.00;99.90;;;;;;5015444;28;20221;-60
2021/08/31 02:07:13;;;;;;;22.50;20.20;;;15.00;99.90;;;;;;5015276;28;20201;-60
2021/08/31 02:09:38;;;;;;;25.13;22.60;;;15.20;99.90;;;;;;5014828;28;20189;-61
2021/08/31 02:12:04;;;;;;;21.13;19.10;;;15.20;99.90;;;;;;5015553;28;20229;-61
2021/08/31 02:14:30;;;;;;;22.40;18.80;;;15.10;99.90;;;;;;5015507;28;20264;-59
2021/08/31 02:16:55;;;;;;;20.10;18.07;;;15.20;99.90;;;;;;5015145;28;20214;-60
2021/08/31 02:19:21;;;;;;;22.87;20.40;;;15.20;99.90;;;;;;5015088;28;20701;-58
2021/08/31 02:21:46;;;;;;;20.13;18.17;;;15.20;99.90;;;;;;5015391;28;20182;-61
2021/08/31 02:24:12;;;;;;;20.23;18.20;;;15.20;99.90;;;;;;5015563;28;20268;-62
2021/08/31 02:26:38;;;;;;;20.70;18.60;;;15.20;99.90;;;;;;5015174;28;20213;-61
2021/08/31 02:29:03;;;;;;;20.80;18.63;;;15.20;99.90;;;;;;5014825;28;20198;-61
2021/08/31 02:31:29;;;;;;;20.60;18.43;;;15.20;99.90;;;;;;5015323;28;20498;-61
2021/08/31 02:33:54;;;;;;;21.27;18.30;;;15.20;99.90;;;;;;5015356;28;20757;-61
2021/08/31 02:36:20;;;;;;;19.37;17.27;;;15.10;99.90;;;;;;5015185;28;20187;-59
2021/08/31 02:38:45;;;;;;;20.20;17.33;;;15.10;99.90;;;;;;5014578;28;20207;-61
2021/08/31 02:41:11;;;;;;;19.60;17.60;;;15.10;99.90;;;;;;5015137;28;20178;-60
2021/08/31 02:43:37;;;;;;;20.80;18.30;;;15.10;99.90;;;;;;5015313;28;20175;-60
2021/08/31 02:46:03;;;;;;;20.10;17.10;;;15.10;99.90;;;;;;5015315;28;20178;-58
2021/08/31 02:48:28;;;;;;;18.63;16.87;;;15.20;99.90;;;;;;5014849;28;20448;-60
2021/08/31 02:50:54;;;;;;;21.03;18.77;;;15.20;99.90;;;;;;5015013;28;20178;-61
2021/08/31 02:53:20;;;;;;;19.37;17.57;;;15.20;99.90;;;;;;5014927;28;20607;-61
2021/08/31 02:55:45;;;;;;;19.63;17.63;;;15.10;99.90;;;;;;5015231;28;20433;-62
2021/08/31 02:58:11;;;;;;;18.83;16.17;;;15.10;99.90;;;;;;5014887;28;20210;-61
2021/08/31 03:00:41;;;;;;;20.63;18.53;;;15.10;99.90;;;;;;5014746;28;20171;-60
2021/08/31 03:03:07;;;;;;;20.00;17.93;;;15.20;99.90;;;;;;5015192;28;20171;-61
2021/08/31 03:05:32;;;;;;;18.77;16.90;;;15.30;99.90;;;;;;5013577;28;20425;-61
2021/08/31 03:07:58;;;;;;;18.67;16.13;;;15.30;99.90;;;;;;5014772;28;20196;-59
2021/08/31 03:10:23;;;;;;;19.40;17.40;;;15.30;99.90;;;;;;5014185;28;20182;-60
2021/08/31 03:12:49;;;;;;;19.13;17.33;;;15.30;99.90;;;;;;5014962;28;20548;-60
2021/08/31 03:15:15;;;;;;;19.37;17.40;;;15.30;99.90;;;;;;5011604;28;20182;-60
2021/08/31 03:17:40;;;;;;;22.90;19.30;;;15.30;99.90;;;;;;5011771;28;20211;-62
2021/08/31 03:20:07;;;;;;;21.20;19.00;;;15.10;99.90;;;;;;5011845;28;20198;-61
2021/08/31 03:22:32;;;;;;;20.57;18.57;;;15.20;99.90;;;;;;5011635;28;20167;-59
2021/08/31 03:24:57;;;;;;;18.43;16.43;;;15.20;99.90;;;;;;5011663;28;20560;-59
2021/08/31 03:27:23;;;;;;;22.60;19.13;;;15.20;99.90;;;;;;5011889;28;20213;-61
2021/08/31 03:29:48;;;;;;;19.00;17.10;;;15.20;99.90;;;;;;5011461;28;20377;-60
2021/08/31 03:32:14;;;;;;;19.20;17.20;;;15.10;99.90;;;;;;5011605;28;20179;-62
2021/08/31 03:34:40;;;;;;;19.77;17.70;;;14.90;99.90;;;;;;5011332;28;20214;-60
2021/08/31 03:37:05;;;;;;;24.83;18.40;;;14.90;99.90;;;;;;5011242;28;20571;-60
2021/08/31 03:39:31;;;;;;;25.40;17.67;;;15.00;99.90;;;;;;5011112;28;20211;-59
2021/08/31 03:41:56;;;;;;;21.83;18.80;;;15.00;99.90;;;;;;5011406;28;20174;-62
2021/08/31 03:44:22;;;;;;;21.47;19.20;;;15.00;99.90;;;;;;5011356;28;20833;-60
2021/08/31 03:46:47;;;;;;;21.93;19.70;;;15.00;99.90;;;;;;5011276;28;20177;-59
2021/08/31 03:49:13;;;;;;;22.20;18.40;;;15.00;99.90;;;;;;5010782;28;20178;-60
2021/08/31 03:51:38;;;;;;;21.17;18.90;;;14.90;99.90;;;;;;5010905;28;20175;-59
2021/08/31 03:54:04;;;;;;;21.83;17.77;;;15.00;99.90;;;;;;5011077;28;20179;-62
2021/08/31 03:56:29;;;;;;;21.00;18.77;;;15.10;99.90;;;;;;5011248;28;20556;-59
2021/08/31 03:58:55;;;;;;;21.77;19.67;;;15.10;99.90;;;;;;5010610;28;20688;-62
2021/08/31 04:01:20;;;;;;;19.87;17.50;;;15.10;99.90;;;;;;5010987;28;20608;-61
2021/08/31 04:03:46;;;;;;;19.57;17.50;;;15.10;99.90;;;;;;5010766;28;20225;-58
2021/08/31 04:06:11;;;;;;;22.17;19.83;;;15.20;99.90;;;;;;5011214;28;20534;-61
2021/08/31 04:08:37;;;;;;;21.53;19.30;;;15.10;99.90;;;;;;5010798;28;20970;-61
2021/08/31 04:11:03;;;;;;;21.37;19.13;;;15.10;99.90;;;;;;5010254;28;20225;-60
2021/08/31 04:13:29;;;;;;;23.03;20.73;;;15.10;99.90;;;;;;5010764;28;20178;-61
2021/08/31 04:15:55;;;;;;;20.80;18.70;;;15.10;99.90;;;;;;5010499;28;20175;-60
2021/08/31 04:18:20;;;;;;;21.73;19.47;;;15.10;99.90;;;;;;5011040;28;20476;-59
2021/08/31 04:20:46;;;;;;;19.93;18.03;;;15.10;99.90;;;;;;5010387;28;20182;-61
2021/08/31 04:23:11;;;;;;;25.93;20.80;;;15.10;99.90;;;;;;5010628;28;20194;-60
2021/08/31 04:25:37;;;;;;;21.20;19.00;;;15.10;99.90;;;;;;5010420;28;20187;-61
2021/08/31 04:28:03;;;;;;;23.27;20.07;;;15.00;99.90;;;;;;5010458;28;20217;-61
2021/08/31 04:30:28;;;;;;;22.83;20.00;;;15.00;99.90;;;;;;5010281;28;20601;-61
2021/08/31 04:32:54;;;;;;;21.17;19.00;;;15.00;99.90;;;;;;5009050;28;20253;-61
2021/08/31 04:35:19;;;;;;;23.30;20.10;;;15.00;99.90;;;;;;5010625;28;20179;-61
2021/08/31 04:37:45;;;;;;;23.73;20.30;;;15.10;99.90;;;;;;5010172;28;20195;-59
2021/08/31 04:40:11;;;;;;;20.57;18.30;;;15.20;99.90;;;;;;5010075;28;20292;-61
2021/08/31 04:42:37;;;;;;;22.07;19.80;;;15.10;99.90;;;;;;5010334;28;20202;-60
2021/08/31 04:45:02;;;;;;;22.27;20.03;;;15.00;99.90;;;;;;5009972;28;20418;-60
2021/08/31 04:47:28;;;;;;;22.33;19.80;;;15.10;99.90;;;;;;5010123;28;20533;-61
2021/08/31 04:49:53;;;;;;;20.60;18.60;;;15.10;99.90;;;;;;5009917;28;20197;-62
2021/08/31 04:52:19;;;;;;;21.00;19.00;;;15.10;99.90;;;;;;5010096;28;20178;-62
2021/08/31 04:54:44;;;;;;;20.27;18.37;;;15.20;99.90;;;;;;5009924;28;20728;-59
2021/08/31 04:57:10;;;;;;;20.07;18.07;;;15.20;99.90;;;;;;5009906;28;20251;-61
2021/08/31 04:59:35;;;;;;;19.83;18.03;;;15.20;99.90;;;;;;5009438;28;20198;-61
2021/08/31 05:02:01;;;;;;;19.93;17.80;;;15.20;99.90;;;;;;5009838;28;20179;-61
2021/08/31 05:04:29;;;;;;;25.47;19.30;;;15.10;99.90;;;;;;5010011;28;20608;-61
2021/08/31 05:06:56;;;;;;;19.20;17.30;;;15.10;99.90;;;;;;5009585;28;20523;-59
2021/08/31 05:09:21;;;;;;;21.63;19.40;;;15.20;99.90;;;;;;5009414;28;20413;-61
2021/08/31 05:11:47;;;;;;;22.17;20.07;;;15.10;99.90;;;;;;5009292;28;20436;-61
2021/08/31 05:14:12;;;;;;;21.80;19.50;;;15.00;99.90;;;;;;5009928;28;20174;-60
2021/08/31 05:16:38;;;;;;;18.63;16.20;;;15.00;99.90;;;;;;5009527;28;20186;-59
2021/08/31 05:19:04;;;;;;;20.57;18.37;;;15.10;99.90;;;;;;5009077;28;20250;-60
2021/08/31 05:21:30;;;;;;;21.83;19.73;;;15.10;99.90;;;;;;5009619;28;20207;-61
2021/08/31 05:23:56;;;;;;;20.23;17.83;;;15.00;99.90;;;;;;5009590;28;20167;-61
2021/08/31 05:26:22;;;;;;;19.17;17.20;;;15.10;99.90;;;;;;5009306;28;20428;-58
2021/08/31 05:28:47;;;;;;;20.83;17.90;;;15.10;99.90;;;;;;5009036;28;20446;-60
2021/08/31 05:31:13;;;;;;;21.03;18.83;;;15.10;99.90;;;;;;5009314;28;20601;-62
2021/08/31 05:33:38;;;;;;;20.53;18.40;;;15.00;99.90;;;;;;5009482;28;20197;-61
2021/08/31 05:36:04;;;;;;;20.20;18.30;;;15.10;99.90;;;;;;5009306;28;20676;-59
2021/08/31 05:38:29;;;;;;;19.10;17.10;;;15.10;99.90;;;;;;5008745;28;20205;-61
2021/08/31 05:40:55;;;;;;;20.53;18.43;;;15.10;99.90;;;;;;5008961;28;20547;-61
2021/08/31 05:43:21;;;;;;;18.57;16.67;;;15.20;99.90;;;;;;5009296;28;20174;-61
2021/08/31 05:45:46;;;;;;;20.27;18.30;;;15.20;99.90;;;;;;5009386;28;20167;-61
2021/08/31 05:48:12;;;;;;;19.47;17.47;;;15.20;99.90;;;;;;5009269;28;20226;-62
2021/08/31 05:50:37;;;;;;;18.87;16.87;;;15.20;99.90;;;;;;5008840;28;20182;-61
2021/08/31 05:53:03;;;;;;;18.17;16.27;;;15.20;99.90;;;;;;5009045;28;20171;-61
2021/08/31 05:55:28;;;;;;;19.40;17.40;;;15.30;99.90;;;;;;5008874;28;20644;-61
2021/08/31 05:57:54;;;;;;;20.40;18.33;;;15.40;99.90;;;;;;5009208;28;20245;-61
2021/08/31 06:00:19;;;;;;;23.67;21.10;;;15.30;99.90;;;;;;5008862;28;20704;-61
2021/08/31 06:02:45;;;;;;;22.63;18.67;;;15.30;99.90;;;;;;5008986;28;20659;-61
2021/08/31 06:05:11;;;;;;;18.23;16.43;;;15.40;99.90;;;;;;5009096;28;20175;-60
2021/08/31 06:07:41;;;;;;;16.60;14.90;;;15.50;99.90;;;;;;5008860;28;20322;-60
2021/08/31 06:10:06;;;;;;;16.43;14.93;;;15.50;99.90;;;;;;5008541;28;20425;-61
2021/08/31 06:12:32;;;;;;;21.70;16.70;;;15.50;99.90;;;;;;5008827;28;20428;-61
2021/08/31 06:14:58;;;;;;;16.17;14.67;;;15.60;99.90;;;;;;5008905;28;20448;-60
2021/08/31 06:17:25;;;;;;;16.47;14.80;;;15.60;99.90;;;;;;5008878;28;20242;-61
2021/08/31 06:19:51;;;;;;;18.37;16.53;;;15.50;99.90;;;;;;5008464;28;20199;-60
2021/08/31 06:22:16;;;;;;;17.80;15.90;;;15.50;99.90;;;;;;5008694;28;20432;-60
2021/08/31 06:24:42;;;;;;;18.40;16.40;;;15.60;99.90;;;;;;5008712;28;20178;-61
2021/08/31 06:27:08;;;;;;;16.90;15.30;;;15.60;99.90;;;;;;5008878;28;20209;-61
2021/08/31 06:29:34;;;;;;;19.70;17.83;;;15.60;99.90;;;;;;5008420;28;20177;-60
2021/08/31 06:31:59;;;;;;;17.00;15.40;;;15.60;99.90;;;;;;5008663;28;20648;-62
2021/08/31 06:34:25;;;;;;;16.77;15.10;;;15.60;99.90;;;;;;5008572;28;20482;-61
2021/08/31 06:36:50;;;;;;;16.90;15.30;;;15.60;99.90;;;;;;5008657;28;20229;-61
2021/08/31 06:39:16;;;;;;;18.77;17.03;;;15.70;99.90;;;;;;5008283;28;20202;-61
2021/08/31 06:41:41;;;;;;;17.03;15.40;;;15.70;99.90;;;;;;5008622;28;20213;-59
2021/08/31 06:44:07;;;;;;;19.13;17.27;;;15.80;99.90;;;;;;5008594;28;20219;-62
2021/08/31 06:46:33;;;;;;;18.00;16.30;;;15.80;99.90;;;;;;5008871;28;20271;-61
2021/08/31 06:48:58;;;;;;;20.10;15.37;;;15.90;99.90;;;;;;5008539;28;20199;-61
2021/08/31 06:51:24;;;;;;;20.10;18.13;;;16.00;99.90;;;;;;5012228;28;20548;-61
2021/08/31 06:53:51;;;;;;;22.03;16.00;;;16.00;99.90;;;;;;5012014;28;20652;-62
2021/08/31 06:56:16;;;;;;;17.40;15.67;;;16.00;99.90;;;;;;5012162;28;20261;-61
2021/08/31 06:58:42;;;;;;;15.10;13.67;;;16.00;99.90;;;;;;5011680;28;20556;-62
2021/08/31 07:01:07;;;;;;;15.73;14.20;;;16.20;99.90;;;;;;5012271;28;20175;-60
2021/08/31 07:03:33;;;;;;;14.93;13.60;;;16.40;99.90;;;;;;5011944;28;20175;-61
2021/08/31 07:05:59;;;;;;;13.93;12.50;;;16.50;99.90;;;;;;5011883;28;20536;-62
2021/08/31 07:08:24;;;;;;;14.97;13.67;;;16.60;99.90;;;;;;5011457;28;20552;-60
2021/08/31 07:10:50;;;;;;;17.00;14.23;;;16.60;99.90;;;;;;5012495;28;20217;-61
2021/08/31 07:13:15;;;;;;;16.07;14.67;;;16.70;99.90;;;;;;5011860;28;20644;-61
2021/08/31 07:15:42;;;;;;;15.77;14.23;;;16.80;99.90;;;;;;5011793;28;20225;-60
2021/08/31 07:18:08;;;;;;;14.73;13.40;;;16.80;99.90;;;;;;5011662;28;20703;-61
2021/08/31 07:20:34;;;;;;;13.63;12.33;;;16.90;99.90;;;;;;5011437;28;20425;-61
2021/08/31 07:22:59;;;;;;;14.00;12.70;;;17.10;99.90;;;;;;5011742;28;20280;-62
2021/08/31 07:25:25;;;;;;;14.67;13.27;;;17.40;99.90;;;;;;5010223;28;20422;-61
2021/08/31 07:27:50;;;;;;;15.30;12.30;;;17.60;99.90;;;;;;5011622;28;20195;-60
2021/08/31 07:30:16;;;;;;;12.63;11.63;;;17.70;99.90;;;;;;5011248;28;20183;-62
2021/08/31 07:32:42;;;;;;;12.07;11.03;;;17.90;99.90;;;;;;5011898;28;20221;-61
2021/08/31 07:35:10;;;;;;;11.47;10.50;;;18.00;99.90;;;;;;5011657;28;21023;-61
2021/08/31 07:37:36;;;;;;;12.27;11.10;;;18.30;99.90;;;;;;5011328;28;20484;-61
2021/08/31 07:40:03;;;;;;;11.70;10.60;;;18.50;99.90;;;;;;5011014;28;20911;-60
2021/08/31 07:42:29;;;;;;;12.10;10.00;;;18.70;99.90;;;;;;5011557;28;20274;-60
2021/08/31 07:44:54;;;;;;;11.93;10.73;;;18.60;99.90;;;;;;5011508;28;20436;-62
2021/08/31 07:47:20;;;;;;;11.03;10.00;;;18.50;99.90;;;;;;5011128;28;20233;-61
2021/08/31 07:49:46;;;;;;;13.83;12.30;;;18.40;99.90;;;;;;5010917;28;20227;-61
2021/08/31 07:52:11;;;;;;;9.93;9.07;;;18.40;99.90;;;;;;5011327;28;20195;-61
2021/08/31 07:54:37;;;;;;;9.43;8.63;;;18.50;99.90;;;;;;5011241;28;20186;-62
2021/08/31 07:57:03;;;;;;;10.53;9.57;;;18.30;99.90;;;;;;5011193;28;20640;-62
2021/08/31 07:59:29;;;;;;;10.97;10.07;;;18.30;99.90;;;;;;5010918;28;20211;-61
2021/08/31 08:01:54;;;;;;;9.47;8.57;;;18.50;99.90;;;;;;5010382;28;20480;-61
2021/08/31 08:04:20;;;;;;;9.67;8.77;;;18.70;99.90;;;;;;5010888;28;20175;-61
2021/08/31 08:06:45;;;;;;;10.70;9.60;;;18.80;99.90;;;;;;5011178;28;20587;-61
2021/08/31 08:09:11;;;;;;;11.23;9.30;;;18.90;99.90;;;;;;5010743;28;20187;-61
2021/08/31 08:11:37;;;;;;;11.00;9.90;;;18.90;99.90;;;;;;5009990;28;20189;-61
2021/08/31 08:14:03;;;;;;;8.90;8.10;;;19.00;99.90;;;;;;5010806;28;20214;-62
2021/08/31 08:16:29;;;;;;;9.47;8.60;;;18.90;99.90;;;;;;5010663;28;20802;-62
2021/08/31 08:18:54;;;;;;;9.13;8.33;;;19.00;99.90;;;;;;5010187;28;20469;-61
2021/08/31 08:21:20;;;;;;;9.43;8.63;;;19.00;99.90;;;;;;5010552;28;20190;-62
2021/08/31 08:23:46;;;;;;;9.50;8.60;;;19.10;99.90;;;;;;5010505;28;20179;-62
2021/08/31 08:26:12;;;;;;;8.50;7.77;;;19.10;99.90;;;;;;5010329;28;20262;-62
2021/08/31 08:28:38;;;;;;;9.33;8.40;;;19.10;99.90;;;;;;5010096;28;20544;-59
2021/08/31 08:31:04;;;;;;;10.57;9.60;;;19.00;99.90;;;;;;5009023;28;20217;-60
2021/08/31 08:33:32;;;;;;;8.73;8.03;;;19.30;99.90;;;;;;5010344;28;20983;-58
2021/08/31 08:36:03;;;;;;;12.43;8.17;;;19.40;99.90;;;;;;5010284;28;20808;-61
2021/08/31 08:38:28;;;;;;;10.23;9.23;;;19.40;99.90;;;;;;5009708;28;20823;-61
2021/08/31 08:40:57;;;;;;;9.00;8.30;;;19.40;99.90;;;;;;5010328;28;20429;-62
2021/08/31 08:43:23;;;;;;;9.70;8.87;;;19.20;99.90;;;;;;5010157;28;20175;-60
2021/08/31 08:45:49;;;;;;;9.43;8.63;;;18.90;99.90;;;;;;5010223;28;20914;-61
2021/08/31 08:48:23;;;;;;;8.83;8.13;;;18.90;99.90;;;;;;5009936;28;20219;-61
2021/08/31 08:50:50;;;;;;;8.70;7.90;;;18.90;99.90;;;;;;5010122;28;20479;-61
2021/08/31 08:53:16;;;;;;;8.77;8.17;;;18.80;99.90;;;;;;5009876;28;20421;-60
2021/08/31 08:55:42;;;;;;;11.23;8.27;;;18.90;99.90;;;;;;5009952;28;20425;-62
2021/08/31 08:58:07;;;;;;;8.83;8.03;;;19.10;99.90;;;;;;5009922;28;20456;-60
2021/08/31 09:01:06;;;;;;;8.53;7.83;;;19.00;99.90;;;;;;5009568;28;20228;-62
2021/08/31 09:03:36;;;;;;;11.87;10.77;;;19.00;99.90;;;;;;5010450;28;20178;-62
2021/08/31 09:06:18;;;;;;;13.70;9.20;;;19.00;99.90;;;;;;5009931;28;20417;-62
2021/08/31 09:08:55;;;;;;;9.00;8.30;;;19.30;99.90;;;;;;5009668;28;20449;-61
2021/08/31 09:11:24;;;;;;;10.30;9.30;;;19.40;99.90;;;;;;5008965;28;20500;-61
2021/08/31 09:13:52;;;;;;;9.47;8.47;;;19.60;99.90;;;;;;5009036;28;20471;-61
2021/08/31 09:16:23;;;;;;;10.23;9.00;;;19.70;99.90;;;;;;5009820;28;20795;-61
2021/08/31 09:18:53;;;;;;;9.87;9.03;;;19.90;99.90;;;;;;5009077;28;20566;-60
2021/08/31 09:21:27;;;;;;;9.30;8.40;;;20.10;99.90;;;;;;5009438;28;20426;-60
2021/08/31 09:23:55;;;;;;;9.87;8.87;;;20.20;99.90;;;;;;5009536;28;20918;-59
2021/08/31 09:26:39;;;;;;;8.90;8.30;;;20.10;99.90;;;;;;5009401;28;20524;-62
2021/08/31 09:29:13;;;;;;;8.80;8.10;;;20.20;99.90;;;;;;5009014;28;20826;-60
2021/08/31 09:31:47;;;;;;;9.00;8.10;;;20.20;99.90;;;;;;5009376;28;20501;-61
2021/08/31 09:34:31;;;;;;;8.87;8.17;;;20.30;99.90;;;;;;5009367;28;20448;-61
2021/08/31 09:37:36;;;;;;;9.23;8.37;;;20.50;99.90;;;;;;5009290;28;20922;-62
2021/08/31 09:40:13;;;;;;;8.57;7.77;;;20.70;99.90;;;;;;5008902;28;20463;-61
2021/08/31 09:43:04;;;;;;;8.60;7.90;;;21.20;99.90;;;;;;5009227;28;20460;-61
2021/08/31 09:45:31;;;;;;;9.40;8.60;;;21.30;99.90;;;;;;5009167;28;20514;-61
2021/08/31 09:47:58;;;;;;;9.10;8.30;;;21.10;99.90;;;;;;5009186;28;20441;-60
2021/08/31 09:50:29;;;;;;;8.00;7.40;;;21.00;99.90;;;;;;5008856;28;20472;-62
2021/08/31 09:53:05;;;;;;;9.07;8.20;;;20.60;99.90;;;;;;5009082;28;20496;-61
2021/08/31 09:55:31;;;;;;;8.20;7.60;;;20.40;99.90;;;;;;5008792;28;20571;-61
2021/08/31 09:58:20;;;;;;;8.30;7.53;;;20.50;99.90;;;;;;5008898;28;20891;-61
2021/08/31 10:00:46;;;;;;;8.50;7.80;;;20.70;99.90;;;;;;5009079;28;20421;-60
2021/08/31 10:03:13;;;;;;;8.60;7.70;;;20.80;99.90;;;;;;5009446;28;20414;-61
2021/08/31 10:05:40;;;;;;;10.27;9.40;;;20.60;99.90;;;;;;5009151;28;20425;-61
2021/08/31 10:08:06;;;;;;;8.37;7.70;;;20.70;99.90;;;;;;5008829;28;20810;-61
2021/08/31 10:10:35;;;;;;;8.63;7.93;;;20.50;99.90;;;;;;5008428;28;20440;-61
2021/08/31 10:13:05;;;;;;;9.03;8.23;;;20.30;99.90;;;;;;5008853;28;20421;-61
2021/08/31 10:15:30;;;;;;;8.97;8.10;;;20.30;99.90;;;;;;5009164;28;20422;-61
2021/08/31 10:17:56;;;;;;;8.80;8.00;;;20.00;99.90;;;;;;5009185;28;20510;-62
2021/08/31 10:20:28;;;;;;;9.10;8.30;;;19.90;99.90;;;;;;5008788;28;20260;-62
2021/08/31 10:22:56;;;;;;;8.60;7.90;;;19.60;99.90;;;;;;5008776;28;20718;-62
2021/08/31 10:25:24;;;;;;;9.20;8.07;;;19.50;99.90;;;;;;5013044;28;20424;-62
2021/08/31 10:27:50;;;;;;;9.17;8.33;;;19.40;99.90;;;;;;5012687;28;20503;-61
2021/08/31 10:30:18;;;;;;;9.57;8.87;;;19.30;99.90;;;;;;5012247;28;20425;-62
2021/08/31 10:32:52;;;;;;;9.80;9.00;;;19.40;99.90;;;;;;5012676;28;20414;-61
2021/08/31 10:35:44;;;;;;;7.93;7.23;;;19.50;99.90;;;;;;5012661;28;20440;-61
2021/08/31 10:38:12;;;;;;;9.27;8.37;;;19.60;99.90;;;;;;5004787;28;20465;-61
2021/08/31 10:40:40;;;;;;;8.37;7.57;;;19.60;99.90;;;;;;5012292;28;20417;-61
2021/08/31 10:43:10;;;;;;;8.40;7.13;;;19.50;99.90;;;;;;5012384;28;20479;-62
2021/08/31 10:45:36;;;;;;;8.93;8.23;;;19.50;99.90;;;;;;5012433;28;20496;-61
2021/08/31 10:48:21;;;;;;;8.20;7.50;;;19.70;99.90;;;;;;5012369;28;20823;-62
2021/08/31 10:50:52;;;;;;;8.63;7.83;;;19.80;99.90;;;;;;5012679;28;20425;-62
2021/08/31 10:53:41;;;;;;;8.27;7.57;;;19.80;99.90;;;;;;5012077;28;20428;-62
2021/08/31 10:56:22;;;;;;;9.07;8.27;;;20.20;99.90;;;;;;5012072;28;21235;-62
2021/08/31 10:58:55;;;;;;;7.60;6.90;;;20.40;99.90;;;;;;5011819;28;20472;-61
2021/08/31 11:01:23;;;;;;;8.20;7.50;;;20.50;99.90;;;;;;5012344;28;21028;-61
2021/08/31 11:03:50;;;;;;;9.23;8.53;;;20.40;99.90;;;;;;5011920;28;20434;-61
2021/08/31 11:06:22;;;;;;;9.50;8.70;;;20.60;99.90;;;;;;5011989;28;20505;-62
2021/08/31 11:09:06;;;;;;;9.27;8.57;;;20.80;99.90;;;;;;5011595;28;20942;-62
2021/08/31 11:11:32;;;;;;;8.57;7.90;;;21.00;99.90;;;;;;5012074;28;20568;-62
2021/08/31 11:13:59;;;;;;;8.33;7.63;;;20.70;99.90;;;;;;5011772;28;20508;-62
2021/08/31 11:16:29;;;;;;;9.33;8.53;;;20.60;99.90;;;;;;5011744;28;20569;-62
2021/08/31 11:18:56;;;;;;;9.07;8.17;;;20.60;99.90;;;;;;5011311;28;20469;-62
2021/08/31 11:21:22;;;;;;;9.40;8.63;;;20.80;99.90;;;;;;5011740;28;20792;-62
2021/08/31 11:23:48;;;;;;;12.00;10.90;;;20.70;99.90;;;;;;5011884;28;20889;-62
2021/08/31 11:26:25;;;;;;;7.93;7.23;;;20.80;99.90;;;;;;5012018;28;20429;-62
2021/08/31 11:28:52;;;;;;;8.03;7.17;;;20.90;99.90;;;;;;5011186;28;20468;-62
2021/08/31 11:31:25;;;;;;;8.10;7.40;;;20.80;99.90;;;;;;5011525;28;20454;-62
2021/08/31 11:33:54;;;;;;;8.97;7.60;;;20.90;99.90;;;;;;5011713;28;20475;-62
2021/08/31 11:36:29;;;;;;;7.53;6.83;;;20.80;99.90;;;;;;5010941;28;20429;-62
2021/08/31 11:39:02;;;;;;;10.10;8.00;;;21.00;99.90;;;;;;5011461;28;20543;-62
2021/08/31 11:41:45;;;;;;;8.97;7.80;;;20.70;99.90;;;;;;5011340;28;20501;-62
2021/08/31 11:44:17;;;;;;;13.40;7.23;;;20.70;99.90;;;;;;5011425;28;20445;-62
2021/08/31 11:46:44;;;;;;;8.10;7.33;;;20.70;99.90;;;;;;5011365;28;21033;-62
2021/08/31 11:49:27;;;;;;;8.20;7.50;;;20.60;99.90;;;;;;5010945;28;20426;-62
2021/08/31 11:52:15;;;;;;;9.33;8.00;;;20.60;99.90;;;;;;5011063;28;20414;-62
2021/08/31 11:54:42;;;;;;;8.47;7.70;;;20.50;99.90;;;;;;5011297;28;20456;-62
2021/08/31 11:57:08;;;;;;;8.80;8.10;;;20.40;99.90;;;;;;5011113;28;20500;-62
2021/08/31 12:00:00;;;;;;;8.60;7.90;;;20.30;99.90;;;;;;5010668;28;20461;-62
2021/08/31 12:02:37;;;;;;;9.13;8.20;;;20.30;99.90;;;;;;5007979;28;20191;-62
2021/08/31 12:05:06;;;;;;;8.87;8.00;;;20.50;99.90;;;;;;5011249;28;20835;-62
2021/08/31 12:07:37;;;;;;;8.50;7.80;;;20.60;99.90;;;;;;5011085;28;20449;-62
2021/08/31 12:10:12;;;;;;;7.67;7.07;;;20.90;99.90;;;;;;5010552;28;20480;-62
2021/08/31 12:12:42;;;;;;;7.37;6.77;;;21.10;99.90;;;;;;5010711;28;20892;-62
2021/08/31 12:15:08;;;;;;;8.40;7.80;;;21.20;99.90;;;;;;5010840;28;20433;-62
2021/08/31 12:17:35;;;;;;;10.40;6.83;;;21.60;99.90;;;;;;5010998;28;20937;-62
2021/08/31 12:20:08;;;;;;;6.93;6.43;;;21.70;99.90;;;;;;5010521;28;20497;-62
2021/08/31 12:22:37;;;;;;;7.27;6.63;;;22.10;99.90;;;;;;5010552;28;20501;-62
2021/08/31 12:25:03;;;;;;;6.20;5.70;;;22.30;99.90;;;;;;5010420;28;21009;-61
2021/08/31 12:27:43;;;;;;;7.50;7.00;;;22.40;99.90;;;;;;5010398;28;21021;-62
2021/08/31 12:30:11;;;;;;;6.63;6.07;;;22.50;99.90;;;;;;5010428;28;20768;-62
2021/08/31 12:32:37;;;;;;;7.00;6.50;;;22.60;99.90;;;;;;5010271;28;20437;-62
2021/08/31 12:35:29;;;;;;;8.03;7.17;;;22.70;99.90;;;;;;5010361;28;20430;-62